Time;durP1;ratioP1;P1;durP2;ratioP2;P2;SDS_P1;SDS_P2;PMS_P1;PMS_P2;Temp;Humidity;BMP_temperature;BMP_pressure;BME280_temperature;BME280_humidity;BME280_pressure;Samples;Min_cycle;Max_cycle;Signal;HPM_P1;HPM_P2
2023/06/26 00:00:36;;;;;;;5.93;3.83;;;;;;;19.17;61.57;97914.63;10469920;28;20124;-76
2023/06/26 00:06:17;;;;;;;7.13;4.20;;;;;;;19.09;62.13;97908.66;10485965;28;20052;-74
2023/06/26 00:11:38;;;;;;;7.85;4.35;;;;;;;19.13;62.46;97908.09;10498410;28;20068;-74
2023/06/26 00:16:59;;;;;;;5.95;4.03;;;;;;;19.14;62.42;97898.97;10483223;28;20122;-75
2023/06/26 00:22:21;;;;;;;6.90;4.10;;;;;;;18.99;62.47;97902.63;10483213;28;20395;-74
2023/06/26 00:27:41;;;;;;;10.85;4.30;;;;;;;19.00;63.14;97906.19;10482920;28;20166;-75
2023/06/26 00:33:03;;;;;;;4.30;3.67;;;;;;;18.92;63.49;97906.63;10497988;28;20052;-75
2023/06/26 00:38:24;;;;;;;5.45;4.35;;;;;;;18.93;63.78;97901.69;10496867;28;20064;-78
2023/06/26 00:43:45;;;;;;;5.10;3.92;;;;;;;18.97;63.72;97902.56;10468658;28;20064;-75
2023/06/26 00:49:06;;;;;;;5.43;4.07;;;;;;;18.91;63.86;97904.44;10482814;28;20041;-75
2023/06/26 00:54:26;;;;;;;7.80;4.55;;;;;;;18.80;64.20;97901.22;10468420;28;20122;-75
2023/06/26 00:59:48;;;;;;;5.28;3.70;;;;;;;18.76;64.53;97897.53;10482245;28;20473;-76
2023/06/26 01:05:12;;;;;;;5.03;4.05;;;;;;;18.72;64.58;97891.72;10485816;28;20056;-74
2023/06/26 01:10:33;;;;;;;5.55;4.15;;;;;;;18.64;64.81;97888.56;10496566;28;20544;-75
2023/06/26 01:15:54;;;;;;;6.38;4.00;;;;;;;18.58;65.19;97889.78;10481908;28;20474;-74
2023/06/26 01:21:15;;;;;;;7.50;4.20;;;;;;;18.53;65.29;97885.34;10495948;28;20154;-79
2023/06/26 01:26:35;;;;;;;6.00;4.13;;;;;;;18.51;65.68;97884.53;10481890;28;20119;-76
2023/06/26 01:31:57;;;;;;;7.28;4.35;;;;;;;18.52;65.85;97883.88;10481649;28;20548;-74
2023/06/26 01:37:18;;;;;;;6.30;4.28;;;;;;;18.45;66.11;97882.22;10481834;28;20059;-75
2023/06/26 01:42:39;;;;;;;5.13;3.70;;;;;;;18.41;66.12;97889.78;10495491;28;20074;-75
2023/06/26 01:47:59;;;;;;;4.72;3.92;;;;;;;18.39;66.44;97881.25;10495595;28;20126;-75
2023/06/26 01:53:23;;;;;;;6.78;3.90;;;;;;;18.41;66.60;97873.56;10481046;28;20166;-78
2023/06/26 01:58:46;;;;;;;5.43;4.38;;;;;;;18.34;66.51;97862.69;10495215;28;20064;-76
2023/06/26 02:04:06;;;;;;;4.77;3.73;;;;;;;18.22;67.08;97858.00;10481420;28;20570;-76
2023/06/26 02:09:27;;;;;;;5.07;3.78;;;;;;;18.14;67.23;97851.28;10503277;28;20655;-76
2023/06/26 02:14:51;;;;;;;6.38;4.30;;;;;;;18.02;67.54;97851.53;10474603;28;20071;-76
2023/06/26 02:20:16;;;;;;;6.32;4.50;;;;;;;17.99;67.91;97859.22;10474902;28;20068;-78
2023/06/26 02:25:37;;;;;;;6.20;4.25;;;;;;;17.98;67.82;97857.03;10487855;28;20474;-77
2023/06/26 02:30:57;;;;;;;6.10;4.03;;;;;;;17.99;68.27;97850.03;10487613;28;20498;-75
2023/06/26 02:36:18;;;;;;;7.95;4.50;;;;;;;18.00;68.39;97857.84;10487349;28;20064;-77
2023/06/26 02:41:39;;;;;;;7.43;3.80;;;;;;;18.07;68.61;97860.91;10487142;28;20094;-77
2023/06/26 02:46:59;;;;;;;5.13;4.20;;;;;;;18.10;68.54;97865.28;10486621;28;20068;-76
2023/06/26 02:52:20;;;;;;;8.38;4.70;;;;;;;18.08;68.61;97863.09;10486908;28;20040;-77
2023/06/26 02:57:41;;;;;;;5.30;4.10;;;;;;;18.11;68.62;97858.97;10486505;28;20075;-77
2023/06/26 03:03:03;;;;;;;5.53;4.55;;;;;;;18.15;68.57;97866.91;10501193;28;20556;-75
2023/06/26 03:08:25;;;;;;;5.82;4.03;;;;;;;18.21;68.99;97855.81;10485843;28;20118;-77
2023/06/26 03:13:45;;;;;;;6.75;4.55;;;;;;;18.35;68.82;97855.66;10458086;28;20076;-77
2023/06/26 03:19:07;;;;;;;6.07;4.47;;;;;;;18.45;68.37;97844.75;10485401;28;20040;-83
2023/06/26 03:24:48;;;;;;;6.95;4.05;;;;;;;18.62;68.42;97848.91;10488269;28;20399;-79
2023/06/26 03:30:10;;;;;;;6.78;4.05;;;;;;;18.70;68.44;97852.06;10484202;28;20044;-77
2023/06/26 03:35:33;;;;;;;5.20;3.78;;;;;;;18.88;68.29;97844.25;10467560;28;20188;-79
2023/06/26 03:40:54;;;;;;;4.53;3.88;;;;;;;19.11;68.21;97846.53;10437742;28;20044;-76
2023/06/26 03:46:16;;;;;;;5.40;3.88;;;;;;;19.27;67.62;97842.78;10498086;28;20071;-77
2023/06/26 03:51:37;;;;;;;11.05;4.20;;;;;;;19.44;67.09;97844.81;10483980;28;20065;-78
2023/06/26 03:56:58;;;;;;;7.95;3.97;;;;;;;19.63;66.98;97843.34;10456650;28;20052;-76
2023/06/26 04:02:19;;;;;;;7.10;4.28;;;;;;;19.94;66.70;97847.91;10449867;28;20063;-76
2023/06/26 04:07:40;;;;;;;5.72;4.35;;;;;;;20.18;66.34;97851.53;10483339;28;20116;-77
2023/06/26 04:13:00;;;;;;;5.53;4.45;;;;;;;20.54;65.86;97848.38;10483136;28;20047;-78
2023/06/26 04:18:21;;;;;;;7.07;4.22;;;;;;;21.01;65.09;97844.06;10498242;28;20044;-77
2023/06/26 04:23:42;;;;;;;4.75;3.92;;;;;;;21.30;64.31;97845.59;10483094;28;20092;-77
2023/06/26 04:29:03;;;;;;;6.55;4.30;;;;;;;21.24;62.85;97839.75;10468606;28;20090;-79
2023/06/26 04:34:25;;;;;;;7.60;5.00;;;;;;;21.34;62.62;97837.94;10517479;28;20249;-74
2023/06/26 04:39:45;;;;;;;7.65;4.93;;;;;;;21.51;62.14;97841.16;10524133;28;20102;-77
2023/06/26 04:45:07;;;;;;;8.35;5.22;;;;;;;21.58;61.33;97837.81;10509887;28;20394;-78
2023/06/26 04:50:29;;;;;;;8.32;5.20;;;;;;;21.67;61.26;97838.75;10523552;28;20044;-80
2023/06/26 04:55:51;;;;;;;9.23;4.97;;;;;;;21.83;60.48;97844.84;10509790;28;20075;-78
2023/06/26 05:01:13;;;;;;;8.27;5.00;;;;;;;22.02;59.65;97836.78;10510011;28;20040;-75
2023/06/26 05:06:34;;;;;;;6.53;5.20;;;;;;;22.11;58.91;97827.06;10509553;28;20221;-76
2023/06/26 05:11:55;;;;;;;8.95;5.13;;;;;;;22.22;59.10;97832.31;10509764;28;20068;-76
2023/06/26 05:17:15;;;;;;;6.45;4.68;;;;;;;22.55;58.57;97838.72;10509372;28;20402;-76
2023/06/26 05:22:38;;;;;;;7.07;4.80;;;;;;;22.78;57.46;97834.97;10523592;28;20040;-77
2023/06/26 05:28:00;;;;;;;6.18;4.55;;;;;;;22.78;56.73;97837.09;10537836;28;20093;-76
2023/06/26 05:33:22;;;;;;;6.60;4.97;;;;;;;22.99;56.13;97833.28;10501059;28;20093;-77
2023/06/26 05:38:43;;;;;;;9.20;5.40;;;;;;;23.22;55.37;97830.84;10470183;28;20071;-76
2023/06/26 05:44:04;;;;;;;7.53;5.30;;;;;;;23.70;54.12;97837.47;10490643;28;20433;-76
2023/06/26 05:49:24;;;;;;;9.40;5.10;;;;;;;24.45;52.84;97828.69;10503673;28;20086;-77
2023/06/26 05:54:45;;;;;;;8.52;4.60;;;;;;;25.04;51.47;97826.59;10480872;28;20484;-76
2023/06/26 06:00:10;;;;;;;6.70;4.30;;;;;;;25.60;50.46;97822.91;10522794;28;20039;-75
2023/06/26 06:05:35;;;;;;;10.02;4.10;;;;;;;26.38;48.52;97821.44;10473085;28;20064;-76
2023/06/26 06:10:56;;;;;;;7.22;4.05;;;;;;;26.93;46.49;97822.44;10446738;28;20041;-74
2023/06/26 06:16:17;;;;;;;6.65;3.65;;;;;;;27.32;44.67;97822.59;10446492;28;20048;-76
2023/06/26 06:21:38;;;;;;;6.80;3.63;;;;;;;27.81;42.33;97828.41;10460003;28;20052;-75
2023/06/26 06:26:58;;;;;;;7.13;2.85;;;;;;;27.94;42.68;97824.09;10458922;28;20128;-74
2023/06/26 06:32:19;;;;;;;5.53;2.92;;;;;;;28.22;41.67;97815.47;10487309;28;20040;-76
2023/06/26 06:37:40;;;;;;;6.60;3.30;;;;;;;28.52;40.91;97826.22;10486560;28;20703;-75
2023/06/26 06:43:01;;;;;;;6.13;3.20;;;;;;;27.85;40.34;97811.91;10431763;28;20037;-82
2023/06/26 06:48:22;;;;;;;6.03;3.13;;;;;;;28.43;40.78;97816.19;10445477;28;20401;-82
2023/06/26 06:53:43;;;;;;;5.57;2.60;;;;;;;28.45;40.36;97821.91;10483659;28;20504;-83
2023/06/26 06:59:03;;;;;;;4.75;2.53;;;;;;;28.90;39.78;97818.94;10486389;28;20379;-83
2023/06/26 07:04:24;;;;;;;4.85;2.67;;;;;;;29.52;39.12;97817.19;10471919;28;20048;-83
2023/06/26 07:09:47;;;;;;;4.03;2.30;;;;;;;30.23;37.33;97810.19;10486197;28;20046;-80
2023/06/26 07:15:08;;;;;;;3.70;2.47;;;;;;;29.98;35.84;97809.66;10485646;28;20049;-80
2023/06/26 07:20:29;;;;;;;2.80;2.10;;;;;;;29.74;35.40;97804.81;10499296;28;20087;-79
2023/06/26 07:25:50;;;;;;;3.73;2.40;;;;;;;29.62;34.93;97802.03;10485299;28;20470;-81
2023/06/26 07:31:11;;;;;;;3.53;2.33;;;;;;;30.41;33.88;97800.66;10500131;28;20041;-81
2023/06/26 07:36:32;;;;;;;4.63;2.47;;;;;;;30.71;32.85;97800.34;10484770;28;20040;-81
2023/06/26 07:41:53;;;;;;;6.18;2.50;;;;;;;31.39;32.62;97797.31;10484237;28;20044;-82
2023/06/26 07:47:14;;;;;;;6.70;2.93;;;;;;;31.98;31.85;97805.06;10484008;28;20051;-82
2023/06/26 07:52:35;;;;;;;4.82;2.80;;;;;;;30.63;32.52;97800.41;10484172;28;20053;-81
2023/06/26 07:57:56;;;;;;;3.60;2.53;;;;;;;30.62;33.72;97801.16;10498547;28;20055;-81
2023/06/26 08:03:17;;;;;;;3.70;2.97;;;;;;;31.14;32.69;97793.31;10440842;28;20544;-80
2023/06/26 08:08:54;;;;;;;3.85;2.72;;;;;;;31.77;32.00;97793.16;10429290;28;20649;-79
2023/06/26 08:14:16;;;;;;;3.90;2.40;;;;;;;32.39;31.94;97793.53;10455932;28;20076;-76
2023/06/26 08:19:36;;;;;;;5.80;2.78;;;;;;;33.10;30.40;97794.28;10441999;28;20041;-76
2023/06/26 08:24:57;;;;;;;5.47;3.00;;;;;;;32.42;30.68;97782.66;10441468;28;20056;-84
2023/06/26 08:30:18;;;;;;;4.70;2.60;;;;;;;32.16;31.38;97778.06;10441702;28;20275;-91
2023/06/26 08:35:38;;;;;;;6.30;2.80;;;;;;;32.57;31.26;97777.31;10427601;28;20044;-82
2023/06/26 08:40:59;;;;;;;4.97;2.63;;;;;;;33.56;29.95;97774.47;10441345;28;20041;-76
2023/06/26 08:46:20;;;;;;;5.10;2.65;;;;;;;34.40;28.93;97779.63;10413197;28;20522;-85
2023/06/26 08:51:43;;;;;;;5.35;2.78;;;;;;;34.43;27.43;97772.31;10425101;28;20403;-80
2023/06/26 08:57:03;;;;;;;4.38;3.00;;;;;;;34.57;26.33;97779.91;10454844;28;20049;-77
2023/06/26 09:02:24;;;;;;;4.68;3.13;;;;;;;34.78;25.91;97777.13;10440574;28;20084;-77
2023/06/26 09:07:45;;;;;;;3.47;2.70;;;;;;;34.51;25.97;97771.38;10440717;28;20519;-78
2023/06/26 09:13:10;;;;;;;3.70;3.03;;;;;;;34.27;25.36;97766.22;10453142;28;20041;-75
2023/06/26 09:18:48;;;;;;;8.40;3.10;;;;;;;34.31;25.52;97758.13;10447181;28;20044;-72
2023/06/26 09:24:09;;;;;;;4.13;3.08;;;;;;;34.54;25.52;97752.44;10447299;28;20045;-72
2023/06/26 09:29:30;;;;;;;4.18;3.20;;;;;;;35.11;24.89;97736.28;10446789;28;20048;-72
2023/06/26 09:34:52;;;;;;;5.88;2.88;;;;;;;35.61;24.36;97738.38;10448165;28;20410;-71
2023/06/26 09:40:13;;;;;;;4.60;3.15;;;;;;;34.78;23.85;97733.66;10448184;28;20045;-71
2023/06/26 09:45:38;;;;;;;4.25;3.28;;;;;;;34.56;24.22;97728.50;10431026;28;20072;-72
2023/06/26 09:51:00;;;;;;;4.65;3.20;;;;;;;34.18;24.29;97721.59;10430874;28;20045;-71
2023/06/26 09:56:33;;;;;;;4.25;2.95;;;;;;;34.14;24.85;97710.81;10433840;28;20111;-72
2023/06/26 10:01:58;;;;;;;4.18;3.08;;;;;;;33.93;25.42;97710.63;10447270;28;20057;-71
2023/06/26 10:07:20;;;;;;;8.43;3.30;;;;;;;34.93;25.03;97704.97;10447299;28;20048;-71
2023/06/26 10:12:41;;;;;;;4.75;2.97;;;;;;;35.51;24.09;97699.50;10433336;28;20068;-71
2023/06/26 10:18:01;;;;;;;;;;;;;;;35.84;23.26;97690.41;10447293;28;20123;-71
2023/06/26 10:23:23;;;;;;;3.85;3.30;;;;;;;35.11;23.84;97686.28;10461398;28;19928;-71
2023/06/26 10:28:44;;;;;;;;;;;;;;;35.36;23.91;97686.22;10445583;28;20501;-72
2023/06/26 10:34:04;;;;;;;3.88;3.40;;;;;;;35.52;23.08;97679.91;10446408;28;19991;-75
2023/06/26 10:39:25;;;;;;;;;;;;;;;35.76;22.40;97672.56;10446451;28;20047;-88
2023/06/26 10:44:47;;;;;;;3.58;3.25;;;;;;;36.25;22.98;97670.84;10432263;28;19925;-79
2023/06/26 10:50:21;;;;;;;3.88;3.00;;;;;;;37.04;21.71;97667.88;10446156;28;20112;-77
2023/06/26 10:55:50;;;;;;;3.72;3.33;;;;;;;37.28;21.39;97668.41;10433255;28;20103;-87
2023/06/26 11:01:10;;;;;;;3.83;3.35;;;;;;;37.70;20.73;97660.13;10432081;28;20045;-82
2023/06/26 11:06:32;;;;;;;5.35;3.80;;;;;;;37.33;20.60;97655.81;10486848;28;20127;-77
2023/06/26 11:11:53;;;;;;;4.20;3.15;;;;;;;37.12;20.39;97647.19;10472306;28;20041;-81
2023/06/26 11:17:16;;;;;;;4.28;3.53;;;;;;;36.68;20.66;97649.66;10483466;28;20067;-82
2023/06/26 11:22:38;;;;;;;5.68;3.80;;;;;;;36.73;20.46;97645.09;10458546;28;20116;-83
2023/06/26 11:27:59;;;;;;;3.92;3.35;;;;;;;36.76;20.32;97634.09;10471439;28;20041;-81
2023/06/26 11:33:26;;;;;;;3.63;3.17;;;;;;;36.59;20.81;97631.13;10485300;28;20102;-83
2023/06/26 11:38:54;;;;;;;3.30;3.00;;;;;;;35.61;20.49;97631.00;10470843;28;20040;-83
2023/06/26 11:44:20;;;;;;;4.15;3.00;;;;;;;36.30;20.46;97628.56;10483860;28;20490;-75
2023/06/26 11:49:45;;;;;;;3.35;2.83;;;;;;;35.96;20.62;97622.50;10485164;28;20055;-73
2023/06/26 11:55:06;;;;;;;3.25;2.95;;;;;;;35.43;21.11;97627.25;10499148;28;20049;-76
2023/06/26 12:00:27;;;;;;;4.95;2.95;;;;;;;35.58;21.49;97620.94;10499194;28;20174;-74
2023/06/26 12:05:49;;;;;;;3.50;2.88;;;;;;;35.95;20.87;97614.59;10447341;28;20053;-74
2023/06/26 12:11:12;;;;;;;3.70;3.17;;;;;;;37.02;20.82;97609.09;10457116;28;20071;-74
2023/06/26 12:16:34;;;;;;;3.45;3.15;;;;;;;37.01;19.93;97608.38;10428251;28;20044;-75
2023/06/26 12:21:56;;;;;;;3.25;2.83;;;;;;;36.26;20.52;97593.81;10441501;28;20044;-76
2023/06/26 12:27:18;;;;;;;4.15;2.80;;;;;;;36.33;20.66;97587.00;10441811;28;20041;-75
2023/06/26 12:32:38;;;;;;;3.33;3.00;;;;;;;36.07;21.40;97577.09;10430253;28;20107;-76
2023/06/26 12:38:00;;;;;;;3.88;3.30;;;;;;;36.06;21.52;97584.38;10478227;28;20048;-75
2023/06/26 12:43:25;;;;;;;;;;;;;;;35.96;21.15;97573.16;10483004;28;20045;-75
2023/06/26 12:48:47;;;;;;;3.63;2.83;;;;;;;36.18;20.92;97565.09;10497499;28;20420;-75
2023/06/26 12:54:09;;;;;;;4.30;3.05;;;;;;;36.74;20.48;97570.19;10496863;28;20128;-75
2023/06/26 12:59:31;;;;;;;3.03;2.72;;;;;;;37.20;20.37;97568.31;10497059;28;20048;-75
2023/06/26 13:04:52;;;;;;;3.90;3.03;;;;;;;36.76;20.31;97555.56;10496819;28;20063;-74
2023/06/26 13:10:12;;;;;;;3.08;2.78;;;;;;;36.88;20.50;97552.94;10523548;28;20398;-75
2023/06/26 13:15:33;;;;;;;3.95;3.55;;;;;;;36.77;20.12;97539.53;10523271;28;20102;-76
2023/06/26 13:20:54;;;;;;;;;;;;;;;36.29;20.91;97542.84;10538785;28;20052;-75
2023/06/26 13:26:15;;;;;;;5.00;3.85;;;;;;;35.80;21.06;97533.06;10509302;28;19920;-76
2023/06/26 13:31:56;;;;;;;6.45;3.75;;;;;;;34.85;21.64;97517.47;10487674;28;20036;-74
2023/06/26 13:37:18;;;;;;;4.10;3.70;;;;;;;34.62;22.15;97514.56;10537988;28;20567;-75
2023/06/26 13:42:39;;;;;;;4.60;3.67;;;;;;;34.68;22.25;97505.00;10522988;28;20044;-76
2023/06/26 13:48:01;;;;;;;5.75;4.18;;;;;;;34.96;22.11;97488.88;10494942;28;20497;-76
2023/06/26 13:53:22;;;;;;;6.22;4.50;;;;;;;34.42;22.80;97486.97;10483314;28;20040;-75
2023/06/26 13:58:43;;;;;;;6.15;4.13;;;;;;;33.81;22.86;97473.59;10481315;28;20041;-81
2023/06/26 14:04:04;;;;;;;5.32;4.03;;;;;;;33.29;23.79;97474.28;10461148;28;20060;-78
2023/06/26 14:09:25;;;;;;;;;;;;;;;34.05;23.40;97463.50;10462349;28;20119;-77
2023/06/26 14:14:45;;;;;;;4.50;3.93;;;;;;;34.49;22.71;97460.69;10446683;28;19927;-73
2023/06/26 14:20:10;;;;;;;6.10;3.35;;;;;;;34.32;22.38;97454.69;10446529;28;20041;-72
2023/06/26 14:25:31;;;;;;;7.88;3.70;;;;;;;34.43;22.77;97453.63;10432729;28;20083;-72
2023/06/26 14:30:51;;;;;;;4.30;3.50;;;;;;;34.36;22.55;97449.50;10473482;28;20068;-74
2023/06/26 14:36:12;;;;;;;5.22;3.58;;;;;;;34.20;22.50;97444.19;10487062;28;20045;-71
2023/06/26 14:41:33;;;;;;;4.90;3.15;;;;;;;34.06;22.44;97441.75;10486992;28;20441;-71
2023/06/26 14:46:56;;;;;;;4.13;3.72;;;;;;;34.05;22.68;97434.53;10472824;28;20043;-71
2023/06/26 14:52:17;;;;;;;4.03;3.63;;;;;;;33.84;22.53;97428.63;10458911;28;20446;-71
2023/06/26 14:57:42;;;;;;;3.90;3.50;;;;;;;33.81;22.54;97413.53;10487178;28;20546;-71
2023/06/26 15:03:03;;;;;;;;;;;;;;;33.75;22.65;97413.69;10486283;28;20126;-71
2023/06/26 15:08:24;;;;;;;4.00;3.50;;;;;;;33.62;22.37;97397.50;10486401;28;19920;-70
2023/06/26 15:13:49;;;;;;;5.95;3.50;;;;;;;33.25;22.83;97392.72;10472746;28;20041;-71
2023/06/26 15:19:12;;;;;;;4.35;3.05;;;;;;;33.00;22.94;97387.63;10471232;28;20071;-71
2023/06/26 15:24:33;;;;;;;3.47;3.17;;;;;;;33.11;22.83;97378.69;10471736;28;20044;-71
2023/06/26 15:29:54;;;;;;;3.97;3.33;;;;;;;33.35;22.57;97362.81;10457365;28;20045;-71
2023/06/26 15:35:15;;;;;;;6.53;3.47;;;;;;;32.90;22.63;97355.41;10442237;28;20041;-76
2023/06/26 15:40:36;;;;;;;4.45;3.85;;;;;;;32.18;23.45;97345.66;10442005;28;20475;-76
2023/06/26 15:45:57;;;;;;;4.13;3.25;;;;;;;31.88;23.91;97349.28;10429528;28;20060;-82
2023/06/26 15:51:18;;;;;;;4.50;3.73;;;;;;;31.97;23.59;97329.63;10444433;28;20499;-78
2023/06/26 15:56:39;;;;;;;6.00;3.77;;;;;;;32.10;23.67;97337.19;10428812;28;20049;-82
2023/06/26 16:02:00;;;;;;;4.93;4.10;;;;;;;31.86;24.03;97315.44;10428579;28;20052;-76
2023/06/26 16:07:21;;;;;;;6.47;3.92;;;;;;;31.91;24.00;97310.25;10442378;28;20045;-74
2023/06/26 16:12:45;;;;;;;4.53;3.70;;;;;;;31.94;24.17;97302.97;10457755;28;20037;-74
2023/06/26 16:18:07;;;;;;;6.07;3.38;;;;;;;31.84;24.11;97306.09;10428341;28;20053;-72
2023/06/26 16:23:27;;;;;;;5.77;3.87;;;;;;;31.76;23.58;97300.53;10428317;28;20044;-75
2023/06/26 16:28:50;;;;;;;4.72;4.20;;;;;;;31.40;24.29;97302.75;10455875;28;20045;-81
2023/06/26 16:34:11;;;;;;;5.80;4.03;;;;;;;31.11;24.89;97290.41;10441726;28;20510;-76
2023/06/26 16:39:32;;;;;;;5.93;4.30;;;;;;;30.98;24.88;97296.44;10455522;28;20048;-75
2023/06/26 16:44:54;;;;;;;5.40;4.00;;;;;;;30.85;25.15;97283.72;10455129;28;20043;-77
2023/06/26 16:50:16;;;;;;;4.32;3.90;;;;;;;30.71;25.81;97289.78;10427744;28;20041;-77
2023/06/26 16:55:37;;;;;;;8.52;4.53;;;;;;;30.59;25.89;97279.16;10427490;28;20040;-75
2023/06/26 17:00:59;;;;;;;4.57;3.88;;;;;;;30.53;25.95;97275.69;10413892;28;20110;-76
2023/06/26 17:06:21;;;;;;;5.40;4.10;;;;;;;30.43;26.55;97268.66;10426792;28;20403;-77
2023/06/26 17:11:42;;;;;;;5.97;4.53;;;;;;;30.43;26.43;97270.84;10454713;28;20116;-76
2023/06/26 17:17:02;;;;;;;5.32;3.58;;;;;;;30.41;26.15;97265.84;10440999;28;20099;-76
2023/06/26 17:22:23;;;;;;;5.50;3.63;;;;;;;30.28;26.41;97266.78;10440578;28;20041;-77
2023/06/26 17:27:44;;;;;;;6.90;4.70;;;;;;;30.11;26.78;97257.75;10440125;28;20045;-84
2023/06/26 17:33:05;;;;;;;9.07;4.72;;;;;;;29.92;27.37;97258.06;10418265;28;20395;-74
2023/06/26 17:38:27;;;;;;;5.50;4.90;;;;;;;29.77;27.76;97265.47;10442255;28;20533;-73
2023/06/26 17:43:48;;;;;;;6.35;4.25;;;;;;;29.69;28.13;97264.91;10447991;28;20124;-74
2023/06/26 17:49:09;;;;;;;5.30;3.75;;;;;;;29.59;28.13;97268.66;10451671;28;20051;-72
2023/06/26 17:54:30;;;;;;;9.90;4.60;;;;;;;29.39;28.88;97275.38;10472804;28;20056;-73
2023/06/26 17:59:51;;;;;;;4.93;4.40;;;;;;;29.23;29.02;97261.94;10474898;28;20106;-72
2023/06/26 18:05:12;;;;;;;7.00;4.18;;;;;;;29.18;29.62;97266.34;10488673;28;20063;-74
2023/06/26 18:10:33;;;;;;;6.43;4.43;;;;;;;29.08;29.71;97258.56;10484844;28;20037;-76
2023/06/26 18:15:54;;;;;;;8.15;4.78;;;;;;;28.93;30.08;97260.19;10475489;28;20548;-74
2023/06/26 18:21:15;;;;;;;5.32;4.70;;;;;;;28.79;30.24;97261.06;10487939;28;20041;-76
2023/06/26 18:26:35;;;;;;;6.20;4.57;;;;;;;28.71;30.77;97257.59;10473719;28;20051;-76
2023/06/26 18:31:57;;;;;;;7.50;4.38;;;;;;;28.59;30.90;97330.22;10487642;28;20040;-78
2023/06/26 18:37:17;;;;;;;12.15;4.65;;;;;;;28.25;31.89;97339.84;10487381;28;20409;-77
2023/06/26 18:42:38;;;;;;;10.57;4.22;;;;;;;27.75;33.26;97349.56;10473112;28;20055;-74
2023/06/26 18:47:59;;;;;;;12.40;4.20;;;;;;;27.31;34.85;97351.19;10459284;28;20466;-76
2023/06/26 18:53:20;;;;;;;6.88;4.03;;;;;;;26.93;35.97;97352.78;10472168;28;20040;-75
2023/06/26 18:58:41;;;;;;;10.57;3.33;;;;;;;26.56;37.29;97377.22;10458923;28;20071;-75
2023/06/26 19:04:02;;;;;;;8.70;3.63;;;;;;;26.24;38.20;97390.06;10472279;28;20059;-75
2023/06/26 19:09:24;;;;;;;4.40;3.15;;;;;;;25.86;39.68;97408.59;10500337;28;20072;-76
2023/06/26 19:14:45;;;;;;;8.20;3.83;;;;;;;25.68;40.65;97431.44;10485934;28;20552;-74
2023/06/26 19:20:06;;;;;;;7.18;3.65;;;;;;;25.38;41.55;97438.47;10499833;28;20044;-78
2023/06/26 19:25:27;;;;;;;7.07;4.10;;;;;;;25.14;42.80;97458.31;10485319;28;20051;-76
2023/06/26 19:30:48;;;;;;;11.00;4.22;;;;;;;24.92;44.14;97472.44;10443037;28;20475;-76
2023/06/26 19:36:08;;;;;;;9.50;4.88;;;;;;;24.74;45.34;97519.41;10429853;28;20055;-76
2023/06/26 19:41:29;;;;;;;9.32;4.90;;;;;;;24.54;47.52;97513.53;10416035;28;20064;-77
2023/06/26 19:46:49;;;;;;;6.82;4.90;;;;;;;24.38;48.58;97542.63;10429301;28;20099;-75
2023/06/26 19:52:11;;;;;;;10.02;5.28;;;;;;;24.12;49.68;97537.31;10443374;28;20111;-73
2023/06/26 19:57:31;;;;;;;7.82;5.30;;;;;;;23.98;51.22;97548.59;10429170;28;20055;-70
2023/06/26 20:02:52;;;;;;;10.95;5.30;;;;;;;23.78;53.00;97569.00;10442605;28;20121;-70
2023/06/26 20:08:13;;;;;;;7.30;4.93;;;;;;;23.61;53.88;97576.63;10456599;28;20067;-71
2023/06/26 20:13:34;;;;;;;9.65;4.95;;;;;;;23.61;54.37;97593.72;10428442;28;20045;-71
2023/06/26 20:18:56;;;;;;;8.52;5.35;;;;;;;23.39;54.96;97594.09;10428524;28;20045;-70
2023/06/26 20:24:17;;;;;;;8.50;5.23;;;;;;;23.18;56.05;97577.41;10428585;28;20045;-72
2023/06/26 20:29:38;;;;;;;10.13;5.68;;;;;;;22.92;57.91;97578.41;10414092;28;20478;-73
2023/06/26 20:34:59;;;;;;;12.18;5.28;;;;;;;22.59;59.88;97588.50;10456674;28;20410;-89
2023/06/26 20:40:20;;;;;;;10.52;6.05;;;;;;;22.27;62.42;97580.09;10426630;28;20049;-71
2023/06/26 20:45:42;;;;;;;10.73;6.05;;;;;;;22.00;63.34;97581.66;10441791;28;20529;-70
2023/06/26 20:51:04;;;;;;;8.95;5.65;;;;;;;21.84;64.73;97596.28;10458552;28;20394;-70
2023/06/26 20:56:27;;;;;;;8.45;5.50;;;;;;;21.61;65.71;97608.53;10438172;28;20048;-70
2023/06/26 21:01:48;;;;;;;6.82;5.15;;;;;;;21.46;66.18;97609.66;10455122;28;20390;-70
2023/06/26 21:07:15;;;;;;;8.75;5.80;;;;;;;21.39;67.08;97600.97;10455606;28;20052;-69
2023/06/26 21:12:36;;;;;;;7.18;5.35;;;;;;;21.20;67.37;97612.56;10455221;28;20491;-70
2023/06/26 21:17:57;;;;;;;8.90;4.97;;;;;;;21.00;68.32;97622.03;10464223;28;20051;-70
2023/06/26 21:23:18;;;;;;;6.38;5.20;;;;;;;20.90;68.66;97626.72;10449318;28;20045;-69
2023/06/26 21:28:39;;;;;;;10.60;5.10;;;;;;;20.88;69.21;97627.41;10463978;28;20129;-70
2023/06/26 21:33:59;;;;;;;8.63;4.60;;;;;;;20.84;69.55;97639.38;10448823;28;20127;-69
2023/06/26 21:39:20;;;;;;;6.78;4.57;;;;;;;20.63;70.83;97650.84;10448801;28;20044;-70
2023/06/26 21:44:41;;;;;;;6.30;3.85;;;;;;;20.48;71.38;97644.09;10463167;28;20072;-70
2023/06/26 21:50:02;;;;;;;7.25;3.88;;;;;;;20.44;71.76;97652.47;10448277;28;20052;-70
2023/06/26 21:55:23;;;;;;;6.50;3.92;;;;;;;20.40;71.88;97649.50;10462860;28;20041;-71
2023/06/26 22:00:56;;;;;;;5.40;3.93;;;;;;;20.31;71.72;97651.38;10462781;28;20073;-71
2023/06/26 22:06:16;;;;;;;9.40;4.40;;;;;;;20.32;71.96;97657.78;10447406;28;20124;-70
2023/06/26 22:11:37;;;;;;;6.70;4.47;;;;;;;20.26;72.95;97646.97;10447195;28;20504;-70
2023/06/26 22:16:58;;;;;;;8.13;4.38;;;;;;;20.28;72.61;97650.63;10461962;28;20124;-70
2023/06/26 22:22:18;;;;;;;7.30;4.10;;;;;;;20.33;72.73;97653.56;10461669;28;20041;-70
2023/06/26 22:27:47;;;;;;;7.53;4.10;;;;;;;20.31;73.37;97668.41;10445113;28;20064;-70
2023/06/26 22:33:08;;;;;;;7.30;4.25;;;;;;;20.37;73.10;97684.88;10446936;28;20048;-70
2023/06/26 22:38:29;;;;;;;5.90;4.07;;;;;;;20.38;73.05;97669.28;10446231;28;20120;-70
2023/06/26 22:43:49;;;;;;;7.55;3.70;;;;;;;20.34;73.05;97678.38;10460826;28;20060;-70
2023/06/26 22:49:12;;;;;;;7.80;4.20;;;;;;;20.30;72.77;97676.19;10432006;28;20069;-70
2023/06/26 22:54:32;;;;;;;5.78;3.80;;;;;;;20.25;72.58;97685.94;10432382;28;20041;-70
2023/06/26 22:59:53;;;;;;;6.47;3.67;;;;;;;20.25;72.69;97671.78;10460269;28;20123;-70
2023/06/26 23:05:13;;;;;;;6.80;3.97;;;;;;;20.21;72.77;97682.28;10445080;28;20064;-69
2023/06/26 23:10:34;;;;;;;6.32;3.78;;;;;;;20.13;72.47;97671.44;10459845;28;20064;-70
2023/06/26 23:15:55;;;;;;;5.18;3.45;;;;;;;20.12;72.40;97672.81;10444944;28;20041;-70
2023/06/26 23:21:19;;;;;;;6.75;3.92;;;;;;;20.10;72.56;97672.78;10459762;28;20053;-70
2023/06/26 23:26:40;;;;;;;6.97;3.80;;;;;;;20.10;72.18;97684.09;10444945;28;20037;-71
2023/06/26 23:32:04;;;;;;;6.45;4.18;;;;;;;20.06;72.62;97683.25;10430703;28;20456;-69
2023/06/26 23:37:26;;;;;;;7.05;4.13;;;;;;;20.10;72.40;97684.09;10444232;28;20099;-71
2023/06/26 23:42:47;;;;;;;5.53;4.15;;;;;;;20.07;72.58;97679.03;10443958;28;20112;-70
2023/06/26 23:48:08;;;;;;;7.00;4.13;;;;;;;20.00;72.58;97678.84;10458527;28;20075;-69
2023/06/26 23:53:29;;;;;;;6.63;4.20;;;;;;;19.86;72.64;97686.19;10458477;28;20448;-70
2023/06/26 23:58:49;;;;;;;5.43;4.10;;;;;;;19.77;72.54;97690.88;10443386;28;20128;-71
